Artesia Wells, Texas
Current Conditions -  °F | °C
As of 9:53 PM on Friday 19 Dec 2014 (Local Time) from KCOT Reporting Station
Clear Clear  
Wind Chill: 54°   Ceiling: Unl
Heat Index: 54°   Visibility: 10mi
Dew Point: 50°   Wind: 9mph
Humidity: 86%   Direction: 60°ENE
Pressure: 30.14"   Gusts: NA
Location:  28.28°N, 99.29°W
Report Text: KCOT 200353Z AUTO 06008KT 10SM CLR 12/10 A3014 RMK AO2 SLP204 T01220100
Loading
Personal Weather Stations






























Interactive Weather Map New forecast layout! Learn more

10-Day Weather Forecast

Advertisements
Track Severe Weather on mobile